createdAt,value
2023-02-22T00:01:43.005Z,65.30
2023-02-22T00:04:11.287Z,65.20
2023-02-22T00:06:38.107Z,65.40
2023-02-22T00:09:04.988Z,65.40
2023-02-22T00:11:31.861Z,65.50
2023-02-22T00:13:58.844Z,65.50
2023-02-22T00:16:26.413Z,65.40
2023-02-22T00:18:53.554Z,65.40
2023-02-22T00:21:20.866Z,65.40
2023-02-22T00:23:48.917Z,65.30
2023-02-22T00:26:18.564Z,65.50
2023-02-22T00:28:46.834Z,65.50
2023-02-22T00:31:15.413Z,65.50
2023-02-22T00:33:42.586Z,65.40
2023-02-22T00:36:10.855Z,65.40
2023-02-22T00:38:38.111Z,65.40
2023-02-22T00:41:05.077Z,65.40
2023-02-22T00:43:31.965Z,65.80
2023-02-22T00:45:59.400Z,65.90
2023-02-22T00:48:26.358Z,65.60
2023-02-22T00:50:55.427Z,65.40
2023-02-22T00:53:25.840Z,65.70
2023-02-22T00:55:52.907Z,65.70
2023-02-22T00:58:20.223Z,65.60
2023-02-22T01:00:47.199Z,65.60
2023-02-22T01:03:15.484Z,65.80
2023-02-22T01:05:42.800Z,65.70
2023-02-22T01:08:10.645Z,65.90
2023-02-22T01:10:38.006Z,66.10
2023-02-22T01:13:09.123Z,66.00
2023-02-22T01:15:37.671Z,65.70
2023-02-22T01:18:05.369Z,65.80
2023-02-22T01:20:34.376Z,66.20
2023-02-22T01:23:03.691Z,66.10
2023-02-22T01:25:31.827Z,65.40
2023-02-22T01:27:59.880Z,65.10
2023-02-22T01:30:28.895Z,65.10
2023-02-22T01:32:56.202Z,65.10
2023-02-22T01:35:25.495Z,65.20
2023-02-22T01:37:52.558Z,65.10
2023-02-22T01:40:21.377Z,65.00
2023-02-22T01:42:51.268Z,65.10
2023-02-22T01:45:30.687Z,65.40
2023-02-22T01:48:09.575Z,65.40
2023-02-22T01:50:38.677Z,65.00
2023-02-22T01:53:06.456Z,65.20
2023-02-22T01:55:34.779Z,65.50
2023-02-22T01:58:02.345Z,65.10
2023-02-22T02:00:30.803Z,65.10
2023-02-22T02:03:02.917Z,65.10
2023-02-22T02:05:31.733Z,65.40
2023-02-22T02:07:59.647Z,65.20
2023-02-22T02:10:27.051Z,65.10
2023-02-22T02:12:54.111Z,65.00
2023-02-22T02:15:29.076Z,64.80
2023-02-22T02:17:57.522Z,64.90
2023-02-22T02:20:28.329Z,65.10
2023-02-22T02:23:14.328Z,64.70
2023-02-22T02:25:56.597Z,64.70
2023-02-22T02:28:26.608Z,64.80
2023-02-22T02:31:05.846Z,64.70
2023-02-22T02:33:35.084Z,64.70
2023-02-22T02:36:24.476Z,64.70
2023-02-22T02:39:04.251Z,64.80
2023-02-22T02:41:36.937Z,64.80
2023-02-22T02:44:11.837Z,64.70
2023-02-22T02:46:43.627Z,64.90
2023-02-22T02:49:16.931Z,64.80
2023-02-22T02:51:48.937Z,64.70
2023-02-22T02:54:16.448Z,64.70
2023-02-22T02:56:43.426Z,64.70
2023-02-22T02:59:39.810Z,64.80
2023-02-22T03:02:42.040Z,64.80
2023-02-22T03:05:11.594Z,64.90
2023-02-22T03:07:49.957Z,64.90
2023-02-22T03:10:16.848Z,64.90
2023-02-22T03:13:10.010Z,64.80
2023-02-22T03:16:15.223Z,64.90
2023-02-22T03:18:43.089Z,65.00
2023-02-22T03:21:19.451Z,64.90
2023-02-22T03:23:49.253Z,65.00
2023-02-22T03:26:25.160Z,65.10
2023-02-22T03:28:53.086Z,65.50
2023-02-22T03:31:29.121Z,65.10
2023-02-22T03:33:58.680Z,64.90
2023-02-22T03:36:28.804Z,65.00
2023-02-22T03:38:57.746Z,64.60
2023-02-22T03:41:26.109Z,64.60
2023-02-22T03:44:01.149Z,64.40
2023-02-22T03:46:29.609Z,64.80
2023-02-22T03:48:57.445Z,64.60
2023-02-22T03:51:24.881Z,64.40
2023-02-22T03:53:52.379Z,64.30
2023-02-22T03:56:22.490Z,64.60
2023-02-22T03:58:49.701Z,64.50
2023-02-22T04:01:17.555Z,64.40
2023-02-22T04:03:44.894Z,64.50
2023-02-22T04:06:11.840Z,64.80
2023-02-22T04:08:38.646Z,64.80
2023-02-22T04:11:05.669Z,64.60
2023-02-22T04:13:32.594Z,64.50
2023-02-22T04:15:59.619Z,64.60
2023-02-22T04:18:26.558Z,64.80
2023-02-22T04:20:53.438Z,65.00
2023-02-22T04:23:20.346Z,64.60
2023-02-22T04:25:47.387Z,64.50
2023-02-22T04:28:15.114Z,64.70
2023-02-22T04:30:44.083Z,64.80
2023-02-22T04:33:11.143Z,64.70
2023-02-22T04:35:38.306Z,64.60
2023-02-22T04:38:05.473Z,64.50
2023-02-22T04:40:32.593Z,64.50
2023-02-22T04:43:00.740Z,64.50
2023-02-22T04:45:27.601Z,64.60
2023-02-22T04:47:54.469Z,64.70
2023-02-22T04:50:21.437Z,64.70
2023-02-22T04:52:48.364Z,64.60
2023-02-22T04:55:16.726Z,64.70
2023-02-22T04:57:43.588Z,65.20
2023-02-22T05:00:10.750Z,65.20
2023-02-22T05:02:40.548Z,64.70
2023-02-22T05:05:07.505Z,64.60
2023-02-22T05:07:34.430Z,64.90
2023-02-22T05:10:03.141Z,64.80
2023-02-22T05:12:30.163Z,64.60
2023-02-22T05:14:57.060Z,64.80
2023-02-22T05:17:24.185Z,65.20
2023-02-22T05:19:51.238Z,65.20
2023-02-22T05:22:18.149Z,65.10
2023-02-22T05:24:45.010Z,64.90
2023-02-22T05:27:12.184Z,64.30
2023-02-22T05:29:39.153Z,64.00
2023-02-22T05:32:06.940Z,63.60
2023-02-22T05:34:33.881Z,63.40
2023-02-22T05:37:00.876Z,63.60
2023-02-22T05:39:27.864Z,63.80
2023-02-22T05:41:54.695Z,63.60
2023-02-22T05:44:21.673Z,63.90
2023-02-22T05:46:48.649Z,63.90
2023-02-22T05:49:15.904Z,64.00
2023-02-22T05:51:42.792Z,64.00
2023-02-22T05:54:09.705Z,64.50
2023-02-22T05:56:36.983Z,64.40
2023-02-22T05:59:03.920Z,64.70
2023-02-22T06:01:30.884Z,65.30
2023-02-22T06:03:57.742Z,65.10
2023-02-22T06:06:24.647Z,65.20
2023-02-22T06:08:51.510Z,65.10
2023-02-22T06:11:19.808Z,64.90
2023-02-22T06:13:51.383Z,65.00
2023-02-22T06:16:18.549Z,65.40
2023-02-22T06:18:45.513Z,65.60
2023-02-22T06:21:12.401Z,66.00
2023-02-22T06:23:39.304Z,66.20
2023-02-22T06:26:06.243Z,66.40
2023-02-22T06:28:33.072Z,66.50
2023-02-22T06:30:59.943Z,66.70
2023-02-22T06:33:26.811Z,66.90
2023-02-22T06:35:53.767Z,66.80
2023-02-22T06:38:21.649Z,66.80
2023-02-22T06:40:48.545Z,67.00
2023-02-22T06:43:15.394Z,67.40
2023-02-22T06:45:42.501Z,67.60
2023-02-22T06:48:09.417Z,67.50
2023-02-22T06:50:36.347Z,67.50
2023-02-22T06:53:03.649Z,67.60
2023-02-22T06:55:32.018Z,67.70
2023-02-22T06:57:59.395Z,67.70
2023-02-22T07:00:27.408Z,67.50
2023-02-22T07:02:54.548Z,67.20
2023-02-22T07:05:22.308Z,66.90
2023-02-22T07:07:50.329Z,67.00
2023-02-22T07:10:23.963Z,67.20
2023-02-22T07:12:52.626Z,67.40
2023-02-22T07:15:23.861Z,67.30
2023-02-22T07:17:51.529Z,67.20
2023-02-22T07:20:20.783Z,67.00
2023-02-22T07:22:49.560Z,67.10
2023-02-22T07:25:16.568Z,67.40
2023-02-22T07:27:44.012Z,67.20
2023-02-22T07:30:31.492Z,67.10
2023-02-22T07:32:59.634Z,67.00
2023-02-22T07:35:27.952Z,67.00
2023-02-22T07:37:56.060Z,67.20
2023-02-22T07:40:23.850Z,67.60
2023-02-22T07:43:14.123Z,67.50
2023-02-22T07:45:41.329Z,67.50
2023-02-22T07:48:08.753Z,67.80
2023-02-22T07:50:36.354Z,67.80
2023-02-22T07:53:04.371Z,67.80
2023-02-22T07:55:42.655Z,67.90
2023-02-22T07:58:13.863Z,68.10
2023-02-22T08:00:41.128Z,68.10
2023-02-22T08:03:09.252Z,68.30
2023-02-22T08:05:37.216Z,68.40
2023-02-22T08:08:04.474Z,68.60
2023-02-22T08:10:31.439Z,68.70
2023-02-22T08:12:58.420Z,68.70
2023-02-22T08:15:26.582Z,68.70
2023-02-22T08:17:53.800Z,68.50
2023-02-22T08:20:21.096Z,68.70
2023-02-22T08:22:48.059Z,68.70
2023-02-22T08:25:17.106Z,68.80
2023-02-22T08:27:44.057Z,68.70
2023-02-22T08:30:15.331Z,68.70
2023-02-22T08:32:42.308Z,68.70
2023-02-22T08:35:09.282Z,68.70
2023-02-22T08:37:36.181Z,68.70
2023-02-22T08:40:03.262Z,68.60
2023-02-22T08:42:30.181Z,68.40
2023-02-22T08:44:57.008Z,68.50
2023-02-22T08:47:23.900Z,68.50
2023-02-22T08:49:50.830Z,68.40
2023-02-22T08:52:17.858Z,67.80
2023-02-22T08:54:45.625Z,67.50
2023-02-22T08:57:13.111Z,67.30
2023-02-22T08:59:40.647Z,67.30
2023-02-22T09:02:14.249Z,67.40
2023-02-22T09:04:41.150Z,67.60
2023-02-22T09:07:08.078Z,67.60
2023-02-22T09:09:35.935Z,67.50
2023-02-22T09:12:03.703Z,67.10
2023-02-22T09:14:30.615Z,67.00
2023-02-22T09:16:57.486Z,67.00
2023-02-22T09:19:24.336Z,66.80
2023-02-22T09:21:58.119Z,66.50
2023-02-22T09:24:25.035Z,66.40
2023-02-22T09:26:54.626Z,66.30
2023-02-22T09:29:25.825Z,65.90
2023-02-22T09:31:53.987Z,65.90
2023-02-22T09:34:22.854Z,65.70
2023-02-22T09:36:50.337Z,65.60
2023-02-22T09:39:17.660Z,65.10
2023-02-22T09:41:56.824Z,64.80
2023-02-22T09:44:36.678Z,64.20
2023-02-22T09:47:05.223Z,63.40
2023-02-22T09:49:39.222Z,62.50
2023-02-22T09:52:18.966Z,61.70
2023-02-22T09:54:52.143Z,60.90
2023-02-22T09:57:32.213Z,60.10
2023-02-22T10:00:13.820Z,59.50
2023-02-22T10:02:46.486Z,58.90
2023-02-22T10:05:34.345Z,58.30
2023-02-22T10:08:06.285Z,57.80
2023-02-22T10:10:35.523Z,57.30
2023-02-22T10:13:14.749Z,56.80
2023-02-22T10:15:51.662Z,56.40
2023-02-22T10:18:42.600Z,55.80
2023-02-22T10:21:28.055Z,55.20
2023-02-22T10:24:17.641Z,54.90
2023-02-22T10:26:47.072Z,54.60
2023-02-22T10:29:22.222Z,54.40
2023-02-22T10:31:52.370Z,54.10
2023-02-22T10:34:42.758Z,54.10
2023-02-22T10:37:28.544Z,53.50
2023-02-22T10:40:11.676Z,53.30
2023-02-22T10:42:38.561Z,53.60
2023-02-22T10:45:07.024Z,53.20
2023-02-22T10:47:34.226Z,51.90
2023-02-22T10:50:01.473Z,51.90
2023-02-22T10:52:30.357Z,52.60
2023-02-22T10:55:13.592Z,53.00
2023-02-22T10:57:42.651Z,53.00
2023-02-22T11:00:21.143Z,52.90
2023-02-22T11:02:53.824Z,52.90
2023-02-22T11:05:31.508Z,52.90
2023-02-22T11:08:17.159Z,52.90
2023-02-22T11:10:44.011Z,52.80
2023-02-22T11:13:28.985Z,52.90
2023-02-22T11:15:58.505Z,52.80
2023-02-22T11:18:27.146Z,52.50
2023-02-22T11:21:20.130Z,52.20
2023-02-22T11:23:47.017Z,52.20
2023-02-22T11:26:15.351Z,52.30
2023-02-22T11:28:50.053Z,52.40
2023-02-22T11:31:24.452Z,52.40
2023-02-22T11:36:31.304Z,52.40
2023-02-22T11:39:00.987Z,52.20
2023-02-22T11:41:28.955Z,52.20
2023-02-22T11:44:11.924Z,52.10
2023-02-22T11:46:40.496Z,52.20
2023-02-22T11:49:11.814Z,52.00
2023-02-22T11:51:45.238Z,52.00
2023-02-22T11:54:19.800Z,51.90
2023-02-22T11:56:48.445Z,51.70
2023-02-22T11:59:15.322Z,51.80
2023-02-22T12:01:42.220Z,51.90
2023-02-22T12:04:15.992Z,51.80
2023-02-22T12:06:59.171Z,51.80
2023-02-22T12:09:28.948Z,51.60
2023-02-22T12:12:07.327Z,51.50
2023-02-22T12:14:34.436Z,50.90
2023-02-22T12:17:07.692Z,50.30
2023-02-22T12:19:39.184Z,50.50
2023-02-22T12:22:10.208Z,50.70
2023-02-22T12:24:40.710Z,50.90
2023-02-22T12:27:11.382Z,51.40
2023-02-22T12:29:48.199Z,51.10
2023-02-22T12:32:23.771Z,51.40
2023-02-22T12:34:54.513Z,51.40
2023-02-22T12:37:24.528Z,51.80
2023-02-22T12:40:08.179Z,52.10
2023-02-22T12:42:47.431Z,52.20
2023-02-22T12:45:20.711Z,52.30
2023-02-22T12:47:51.504Z,52.10
2023-02-22T12:50:27.481Z,52.10
2023-02-22T12:53:00.054Z,52.10
2023-02-22T12:55:31.801Z,52.00
2023-02-22T12:58:07.772Z,52.10
2023-02-22T13:00:44.933Z,52.20
2023-02-22T13:03:30.527Z,52.20
2023-02-22T13:06:03.160Z,52.50
2023-02-22T13:08:34.264Z,52.30
2023-02-22T13:11:17.946Z,52.00
2023-02-22T13:14:17.530Z,52.10
2023-02-22T13:16:52.864Z,52.40
2023-02-22T13:19:28.813Z,52.90
2023-02-22T13:21:58.778Z,53.00
2023-02-22T13:24:31.591Z,53.10
2023-02-22T13:26:58.457Z,53.10
2023-02-22T13:29:34.061Z,53.00
2023-02-22T13:32:13.249Z,53.20
2023-02-22T13:34:59.417Z,53.20
2023-02-22T13:37:41.485Z,53.40
2023-02-22T13:40:23.802Z,53.60
2023-02-22T13:43:03.586Z,53.70
2023-02-22T13:45:30.484Z,53.40
2023-02-22T13:48:12.576Z,53.10
2023-02-22T13:50:44.804Z,53.00
2023-02-22T13:53:13.325Z,53.00
2023-02-22T13:55:41.591Z,53.00
2023-02-22T13:58:09.473Z,52.90
2023-02-22T14:00:42.410Z,52.60
2023-02-22T14:03:15.501Z,52.70
2023-02-22T14:05:42.611Z,53.00
2023-02-22T14:08:39.380Z,53.10
2023-02-22T14:11:26.872Z,53.30
2023-02-22T14:14:01.039Z,53.30
2023-02-22T14:16:28.907Z,53.50
2023-02-22T14:19:06.610Z,53.50
2023-02-22T14:21:37.085Z,53.60
2023-02-22T14:24:13.111Z,53.70
2023-02-22T14:26:40.461Z,53.70
2023-02-22T14:29:07.968Z,53.80
2023-02-22T14:31:40.845Z,53.90
2023-02-22T14:34:12.102Z,54.00
2023-02-22T14:36:51.024Z,54.00
2023-02-22T14:39:24.079Z,54.00
2023-02-22T14:42:04.309Z,54.10
2023-02-22T14:44:51.378Z,54.00
2023-02-22T14:47:21.422Z,54.00
2023-02-22T14:49:50.188Z,54.20
2023-02-22T14:52:24.958Z,54.60
2023-02-22T14:55:07.434Z,54.30
2023-02-22T14:57:43.333Z,54.40
2023-02-22T15:00:40.179Z,54.60
2023-02-22T15:03:17.860Z,54.70
2023-02-22T15:05:44.719Z,54.90
2023-02-22T15:08:15.265Z,54.90
2023-02-22T15:10:43.148Z,55.10
2023-02-22T15:13:18.859Z,55.10
2023-02-22T15:15:54.473Z,55.20
2023-02-22T15:18:22.222Z,55.30
2023-02-22T15:20:56.197Z,55.40
2023-02-22T15:23:30.850Z,55.50
2023-02-22T15:26:00.464Z,55.60
2023-02-22T15:28:30.982Z,55.90
2023-02-22T15:31:17.716Z,56.00
2023-02-22T15:33:46.268Z,56.10
2023-02-22T15:36:20.857Z,56.30
2023-02-22T15:38:53.828Z,56.40
2023-02-22T15:41:28.057Z,56.50
2023-02-22T15:44:22.698Z,56.70
2023-02-22T15:47:00.264Z,56.90
2023-02-22T15:49:37.123Z,56.80
2023-02-22T15:52:08.845Z,57.00
2023-02-22T15:54:50.049Z,57.40
2023-02-22T15:57:22.233Z,57.20
2023-02-22T15:59:53.751Z,57.70
2023-02-22T16:02:30.178Z,57.50
2023-02-22T16:05:06.620Z,57.70
2023-02-22T16:07:36.199Z,57.70
2023-02-22T16:10:09.335Z,57.80
2023-02-22T16:12:36.367Z,58.00
2023-02-22T16:15:03.483Z,58.10
2023-02-22T16:17:35.456Z,58.00
2023-02-22T16:20:11.756Z,58.00
2023-02-22T16:22:39.099Z,58.30
2023-02-22T16:25:32.975Z,58.20
2023-02-22T16:28:06.391Z,58.40
2023-02-22T16:30:34.793Z,58.60
2023-02-22T16:33:05.697Z,58.60
2023-02-22T16:35:35.714Z,58.80
2023-02-22T16:38:04.424Z,58.50
2023-02-22T16:40:34.685Z,58.50
2023-02-22T16:43:06.584Z,58.60
2023-02-22T16:45:33.545Z,58.70
2023-02-22T16:48:00.774Z,58.90
2023-02-22T16:50:27.711Z,58.80
2023-02-22T16:52:58.682Z,58.80
2023-02-22T16:55:26.316Z,58.80
2023-02-22T16:57:55.344Z,58.90
2023-02-22T17:00:31.474Z,58.90
2023-02-22T17:02:59.262Z,59.10
2023-02-22T17:05:26.189Z,59.00
2023-02-22T17:07:53.093Z,59.10
2023-02-22T17:10:20.193Z,59.10
2023-02-22T17:12:48.903Z,59.30
2023-02-22T17:15:26.695Z,59.30
2023-02-22T17:17:54.409Z,59.40
2023-02-22T17:20:30.259Z,59.50
2023-02-22T17:23:00.981Z,59.60
2023-02-22T17:25:31.404Z,59.60
2023-02-22T17:27:58.336Z,59.60
2023-02-22T17:30:25.987Z,59.80
2023-02-22T17:32:53.187Z,59.70
2023-02-22T17:35:24.305Z,59.80
2023-02-22T17:37:51.316Z,59.90
2023-02-22T17:40:18.333Z,59.90
2023-02-22T17:42:45.744Z,59.90
2023-02-22T17:45:14.315Z,60.10
2023-02-22T17:47:42.834Z,60.10
2023-02-22T17:50:11.268Z,60.10
2023-02-22T17:52:38.808Z,60.20
2023-02-22T17:55:06.638Z,60.20
2023-02-22T17:57:33.979Z,60.20
2023-02-22T18:00:01.809Z,60.20
2023-02-22T18:02:28.796Z,60.30
2023-02-22T18:04:56.107Z,60.30
2023-02-22T18:07:22.976Z,60.20
2023-02-22T18:09:49.911Z,60.30
2023-02-22T18:12:16.758Z,60.40
2023-02-22T18:14:43.714Z,60.40
2023-02-22T18:17:10.598Z,60.30
2023-02-22T18:19:37.451Z,60.30
2023-02-22T18:22:04.503Z,60.50
2023-02-22T18:24:32.052Z,60.60
2023-02-22T18:27:00.098Z,60.60
2023-02-22T18:29:30.540Z,60.70
2023-02-22T18:31:57.664Z,60.60
2023-02-22T18:34:28.295Z,60.50
2023-02-22T18:36:55.568Z,60.50
2023-02-22T18:39:22.529Z,60.40
2023-02-22T18:41:49.445Z,60.40
2023-02-22T18:44:16.628Z,60.40
2023-02-22T18:46:43.944Z,60.50
2023-02-22T18:49:12.756Z,60.50
2023-02-22T18:51:43.634Z,60.60
2023-02-22T18:54:12.004Z,60.70
2023-02-22T18:56:40.377Z,60.70
2023-02-22T18:59:12.320Z,60.70
2023-02-22T19:01:40.422Z,60.80
2023-02-22T19:04:09.911Z,60.80
2023-02-22T19:06:37.621Z,60.70
2023-02-22T19:09:08.782Z,60.70
2023-02-22T19:11:36.779Z,60.80
2023-02-22T19:14:05.388Z,60.80
2023-02-22T19:16:32.975Z,60.90
2023-02-22T19:19:00.083Z,61.00
2023-02-22T19:21:28.201Z,61.00
2023-02-22T19:23:55.822Z,61.00
2023-02-22T19:26:24.259Z,60.90
2023-02-22T19:28:52.325Z,61.00
2023-02-22T19:31:19.795Z,61.00
2023-02-22T19:33:48.140Z,60.90
2023-02-22T19:36:15.677Z,61.10
2023-02-22T19:38:42.757Z,61.00
2023-02-22T19:41:12.514Z,60.90
2023-02-22T19:43:39.521Z,60.90
2023-02-22T19:46:06.858Z,60.90
2023-02-22T19:48:33.813Z,61.00
2023-02-22T19:51:08.340Z,61.00
2023-02-22T19:53:35.622Z,61.00
2023-02-22T19:56:11.882Z,61.00
2023-02-22T19:58:39.587Z,61.00
2023-02-22T20:01:13.059Z,61.00
2023-02-22T20:03:42.028Z,61.10
2023-02-22T20:06:12.087Z,61.20
2023-02-22T20:08:42.448Z,61.30
2023-02-22T20:11:10.683Z,61.40
2023-02-22T20:13:41.190Z,61.30
2023-02-22T20:16:10.098Z,61.50
2023-02-22T20:18:37.264Z,61.40
2023-02-22T20:21:11.143Z,61.60
2023-02-22T20:23:40.789Z,61.60
2023-02-22T20:26:13.989Z,61.70
2023-02-22T20:28:41.387Z,61.80
2023-02-22T20:31:13.840Z,61.80
2023-02-22T20:33:41.948Z,61.90
2023-02-22T20:36:13.814Z,62.00
2023-02-22T20:38:41.060Z,61.90
2023-02-22T20:41:08.921Z,62.00
2023-02-22T20:43:36.002Z,62.20
2023-02-22T20:46:03.570Z,62.30
2023-02-22T20:48:30.515Z,62.40
2023-02-22T20:50:57.647Z,62.30
2023-02-22T20:53:24.745Z,62.40
2023-02-22T20:55:52.221Z,62.50
2023-02-22T20:58:23.221Z,62.50
2023-02-22T21:00:50.288Z,62.70
2023-02-22T21:03:17.141Z,62.60
2023-02-22T21:05:45.005Z,62.50
2023-02-22T21:08:12.795Z,62.40
2023-02-22T21:10:43.595Z,62.40
2023-02-22T21:13:11.460Z,62.50
2023-02-22T21:15:43.591Z,62.50
2023-02-22T21:18:11.441Z,62.60
2023-02-22T21:20:40.559Z,62.60
2023-02-22T21:23:07.539Z,62.60
2023-02-22T21:25:34.539Z,62.70
2023-02-22T21:28:02.936Z,62.70
2023-02-22T21:30:30.485Z,62.90
2023-02-22T21:32:57.550Z,63.00
2023-02-22T21:35:25.025Z,63.10
2023-02-22T21:37:52.603Z,63.00
2023-02-22T21:40:19.740Z,63.10
2023-02-22T21:42:48.332Z,63.20
2023-02-22T21:45:16.304Z,63.20
2023-02-22T21:47:43.198Z,63.20
2023-02-22T21:50:10.553Z,63.40
2023-02-22T21:52:38.027Z,63.40
2023-02-22T21:55:06.453Z,63.30
2023-02-22T21:57:33.332Z,63.20
2023-02-22T22:00:00.250Z,63.20
2023-02-22T22:02:29.384Z,63.20
2023-02-22T22:04:56.555Z,63.10
2023-02-22T22:07:23.551Z,63.20
2023-02-22T22:09:56.725Z,63.20
2023-02-22T22:12:25.961Z,63.20
2023-02-22T22:14:55.502Z,63.30
2023-02-22T22:17:22.532Z,63.50
2023-02-22T22:19:49.507Z,63.40
2023-02-22T22:22:16.520Z,63.40
2023-02-22T22:24:46.078Z,63.50
2023-02-22T22:27:13.503Z,63.50
2023-02-22T22:29:40.408Z,63.70
2023-02-22T22:32:07.443Z,63.80
2023-02-22T22:34:35.138Z,63.90
2023-02-22T22:37:02.053Z,64.00
2023-02-22T22:39:29.007Z,63.80
2023-02-22T22:41:56.042Z,63.80
2023-02-22T22:44:23.285Z,63.90
2023-02-22T22:46:53.654Z,64.00
2023-02-22T22:49:23.443Z,64.10
2023-02-22T22:51:50.385Z,64.10
2023-02-22T22:54:17.450Z,64.10
2023-02-22T22:56:44.333Z,64.10
2023-02-22T22:59:13.213Z,64.30
2023-02-22T23:01:44.604Z,64.30
2023-02-22T23:04:13.699Z,64.40
2023-02-22T23:06:41.960Z,64.40
2023-02-22T23:09:11.860Z,64.70
2023-02-22T23:11:46.782Z,64.80
2023-02-22T23:14:15.152Z,65.30
2023-02-22T23:16:43.067Z,65.50
2023-02-22T23:19:09.969Z,65.70
2023-02-22T23:21:37.144Z,65.70
2023-02-22T23:24:07.268Z,65.70
2023-02-22T23:26:34.541Z,65.80
2023-02-22T23:29:05.003Z,65.80
2023-02-22T23:31:32.365Z,65.70
2023-02-22T23:33:59.575Z,65.50
2023-02-22T23:36:26.667Z,65.40
2023-02-22T23:38:54.369Z,65.50
2023-02-22T23:41:25.184Z,65.50
2023-02-22T23:43:52.274Z,65.50
2023-02-22T23:46:19.377Z,65.80
2023-02-22T23:48:53.035Z,65.70
2023-02-22T23:51:25.685Z,65.90
2023-02-22T23:53:55.824Z,66.10
2023-02-22T23:56:25.457Z,66.10
2023-02-22T23:58:52.867Z,66.10
